Time;durP1;ratioP1;P1;durP2;ratioP2;P2;SDS_P1;SDS_P2;PMS_P1;PMS_P2;Temp;Humidity;BMP_temperature;BMP_pressure;BME280_temperature;BME280_humidity;BME280_pressure;Samples;Min_cycle;Max_cycle;Signal;HPM_P1;HPM_P2
2023/07/11 00:00:06;;;;;;;6.45;3.10;;;;;;;20.02;68.85;101457.47;5038595;28;20039;-79
2023/07/11 00:02:31;;;;;;;6.25;3.63;;;;;;;20.03;68.83;101452.94;5042072;28;20083;-80
2023/07/11 00:05:00;;;;;;;5.22;3.13;;;;;;;20.00;69.32;101456.72;5032206;28;20021;-73
2023/07/11 00:07:27;;;;;;;6.05;3.40;;;;;;;19.99;69.62;101455.03;5041651;28;20051;-78
2023/07/11 00:09:53;;;;;;;6.82;3.33;;;;;;;19.92;70.17;101450.22;5039860;28;20059;-71
2023/07/11 00:12:19;;;;;;;6.00;3.30;;;;;;;19.86;70.15;101446.19;5036250;28;20033;-78
2023/07/11 00:14:44;;;;;;;6.82;3.05;;;;;;;19.85;70.42;101444.44;5030839;28;20686;-81
2023/07/11 00:17:10;;;;;;;5.30;3.38;;;;;;;19.80;70.80;101436.72;5037697;28;20198;-79
2023/07/11 00:19:50;;;;;;;5.22;3.08;;;;;;;19.78;70.65;101443.25;5032465;28;20061;-73
2023/07/11 00:22:16;;;;;;;5.65;3.17;;;;;;;19.65;71.44;101430.72;5038087;28;20040;-78
2023/07/11 00:24:42;;;;;;;4.05;2.88;;;;;;;19.64;71.09;101428.13;5041292;28;20084;-73
2023/07/11 00:27:10;;;;;;;6.32;3.10;;;;;;;19.60;72.18;101434.72;5034774;28;20513;-76
2023/07/11 00:29:35;;;;;;;5.68;3.28;;;;;;;19.63;71.91;101429.97;5048431;28;20534;-77
2023/07/11 00:32:01;;;;;;;5.25;3.03;;;;;;;19.56;72.20;101427.84;5028831;28;20032;-77
2023/07/11 00:34:26;;;;;;;7.43;3.53;;;;;;;19.54;72.50;101424.41;5040043;28;20075;-77
2023/07/11 00:36:54;;;;;;;6.45;3.50;;;;;;;19.46;73.00;101418.75;5032505;28;20029;-71
2023/07/11 00:39:20;;;;;;;6.28;3.67;;;;;;;19.47;72.99;101425.88;5037881;28;20056;-73
2023/07/11 00:41:45;;;;;;;5.25;3.67;;;;;;;19.43;73.27;101433.34;5038307;28;20124;-72
2023/07/11 00:44:16;;;;;;;6.32;3.67;;;;;;;19.40;73.34;101426.38;5041775;28;20039;-78
2023/07/11 00:46:43;;;;;;;7.18;3.78;;;;;;;19.39;73.49;101426.47;5031752;28;20073;-80
2023/07/11 00:49:11;;;;;;;6.88;4.03;;;;;;;19.36;73.31;101427.59;5033308;28;20033;-77
2023/07/11 00:51:43;;;;;;;6.60;4.15;;;;;;;19.21;74.96;101415.28;5041190;28;20017;-75
2023/07/11 00:54:15;;;;;;;5.30;3.53;;;;;;;19.28;74.77;101427.34;5034981;28;20122;-72
2023/07/11 00:56:44;;;;;;;6.68;3.72;;;;;;;19.23;75.38;101420.56;5036263;28;20033;-80
2023/07/11 00:59:10;;;;;;;5.82;3.72;;;;;;;19.25;75.50;101424.00;5042374;28;20024;-78
2023/07/11 01:01:36;;;;;;;6.30;4.03;;;;;;;19.18;76.20;101431.72;5036180;28;20660;-80
2023/07/11 01:04:05;;;;;;;4.60;3.78;;;;;;;19.12;76.44;101424.09;5040157;28;20037;-74
2023/07/11 01:06:32;;;;;;;4.95;3.65;;;;;;;19.11;76.28;101425.09;5046449;28;20076;-77
2023/07/11 01:08:59;;;;;;;7.45;3.95;;;;;;;19.09;76.39;101427.03;5038035;28;20075;-82
2023/07/11 01:11:28;;;;;;;7.15;4.00;;;;;;;19.08;76.46;101422.63;5031443;28;20103;-81
2023/07/11 01:13:53;;;;;;;5.60;4.30;;;;;;;19.08;76.71;101422.63;5033151;28;20052;-74
2023/07/11 01:16:19;;;;;;;6.47;4.32;;;;;;;18.99;76.38;101415.25;5043041;28;20100;-77
2023/07/11 01:18:45;;;;;;;7.93;4.88;;;;;;;19.03;76.99;101422.97;5033470;28;20072;-71
2023/07/11 01:21:16;;;;;;;7.57;4.80;;;;;;;19.02;76.78;101415.88;5026380;28;20029;-79
2023/07/11 01:23:42;;;;;;;7.88;5.10;;;;;;;18.97;78.12;101426.13;5041211;28;20202;-76
2023/07/11 01:26:07;;;;;;;6.75;4.88;;;;;;;18.88;78.97;101419.63;5043585;28;20131;-79
2023/07/11 01:28:33;;;;;;;7.47;4.70;;;;;;;18.85;79.11;101418.97;5045104;28;20021;-75
2023/07/11 01:30:58;;;;;;;8.85;5.35;;;;;;;18.82;79.28;101414.69;5034615;28;20037;-70
2023/07/11 01:33:26;;;;;;;8.73;4.82;;;;;;;18.84;78.98;101410.03;5040897;28;20021;-73
2023/07/11 01:35:55;;;;;;;7.78;5.20;;;;;;;18.73;80.07;101411.81;5031226;28;20503;-79
2023/07/11 01:38:25;;;;;;;9.18;5.13;;;;;;;18.69;79.42;101408.50;5034263;28;20358;-75
2023/07/11 01:40:50;;;;;;;8.68;5.13;;;;;;;18.68;80.09;101406.75;5030915;28;20021;-83
2023/07/11 01:43:17;;;;;;;8.73;5.43;;;;;;;18.67;79.62;101396.94;5038070;28;20094;-74
2023/07/11 01:45:43;;;;;;;8.02;5.47;;;;;;;18.64;80.14;101397.19;5040355;28;20329;-75
2023/07/11 01:48:09;;;;;;;7.10;4.90;;;;;;;18.60;81.05;101396.59;5038135;28;20057;-79
2023/07/11 01:50:34;;;;;;;6.55;4.85;;;;;;;18.57;81.00;101393.25;5040293;28;20029;-78
2023/07/11 01:53:00;;;;;;;6.93;4.75;;;;;;;18.57;81.88;101390.56;5039862;28;20470;-79
2023/07/11 01:55:25;;;;;;;8.10;5.28;;;;;;;18.48;81.13;101383.16;5032485;28;20450;-80
2023/07/11 01:57:51;;;;;;;7.05;5.03;;;;;;;18.49;82.02;101384.88;5025979;28;20045;-73
2023/07/11 02:00:17;;;;;;;7.95;4.97;;;;;;;18.46;82.35;101387.81;5038324;28;20040;-76
2023/07/11 02:02:43;;;;;;;10.63;5.15;;;;;;;18.37;82.92;101376.75;5034755;28;20181;-83
2023/07/11 02:05:08;;;;;;;6.78;5.05;;;;;;;18.27;84.36;101381.09;5039752;28;20506;-79
2023/07/11 02:07:34;;;;;;;6.88;5.00;;;;;;;18.26;84.91;101375.81;5039999;28;20967;-78
2023/07/11 02:09:59;;;;;;;8.18;5.50;;;;;;;18.24;84.72;101384.03;5036937;28;20036;-78
2023/07/11 02:12:24;;;;;;;8.63;5.53;;;;;;;18.19;84.40;101374.56;5045698;28;20040;-75
2023/07/11 02:14:50;;;;;;;8.65;6.35;;;;;;;18.21;85.08;101373.47;5045126;28;20552;-83
2023/07/11 02:17:16;;;;;;;8.27;6.00;;;;;;;18.10;85.25;101371.59;5034299;28;20031;-78
2023/07/11 02:19:44;;;;;;;8.35;5.80;;;;;;;18.08;85.20;101372.66;5043628;28;20033;-79
2023/07/11 02:22:11;;;;;;;7.32;5.80;;;;;;;18.08;85.52;101368.13;5036057;28;20108;-73
2023/07/11 02:24:38;;;;;;;10.07;6.45;;;;;;;18.05;85.44;101354.88;5040361;28;20094;-75
2023/07/11 02:27:03;;;;;;;8.77;5.60;;;;;;;18.05;85.22;101357.56;5030670;28;20027;-80
2023/07/11 02:29:29;;;;;;;7.90;5.38;;;;;;;18.05;85.04;101354.88;5042537;28;20398;-77
2023/07/11 02:31:54;;;;;;;7.82;5.72;;;;;;;18.00;85.40;101351.69;5037898;28;20111;-73
2023/07/11 02:34:20;;;;;;;8.10;5.40;;;;;;;17.96;85.55;101343.94;5042537;28;20106;-80
2023/07/11 02:36:45;;;;;;;7.25;5.72;;;;;;;17.95;85.18;101347.63;5038156;28;20403;-74
2023/07/11 02:39:11;;;;;;;6.63;5.72;;;;;;;17.87;86.09;101348.19;5032462;28;20043;-71
2023/07/11 02:41:37;;;;;;;7.47;5.53;;;;;;;17.80;85.83;101334.28;5041521;28;20037;-78
2023/07/11 02:44:02;;;;;;;6.72;5.63;;;;;;;17.85;85.81;101325.91;5035573;28;20091;-74
2023/07/11 02:46:28;;;;;;;7.38;5.50;;;;;;;17.88;85.96;101331.03;5036194;28;20052;-82
2023/07/11 02:48:55;;;;;;;6.47;5.40;;;;;;;17.80;86.10;101330.75;5033995;28;20101;-69
2023/07/11 02:51:21;;;;;;;6.53;5.35;;;;;;;17.85;85.96;101328.59;5037751;28;20029;-76
2023/07/11 02:53:46;;;;;;;6.03;5.43;;;;;;;17.72;85.81;101319.63;5050618;28;20285;-79
2023/07/11 02:56:12;;;;;;;5.65;4.80;;;;;;;17.73;85.95;101322.25;5034898;28;20032;-72
2023/07/11 02:58:37;;;;;;;6.20;4.88;;;;;;;17.70;86.28;101325.16;5036838;28;20391;-76
2023/07/11 03:01:03;;;;;;;6.60;4.90;;;;;;;17.68;86.25;101319.00;5036389;28;20514;-82
2023/07/11 03:03:29;;;;;;;6.35;5.15;;;;;;;17.70;86.04;101321.59;5030725;28;20495;-76
2023/07/11 03:05:55;;;;;;;5.95;4.88;;;;;;;17.64;86.43;101312.13;5036540;28;20037;-78
2023/07/11 03:08:21;;;;;;;7.75;5.15;;;;;;;17.59;86.67;101304.38;5036314;28;20478;-79
2023/07/11 03:10:46;;;;;;;6.90;5.65;;;;;;;17.62;86.33;101304.16;5038917;28;20122;-84
2023/07/11 03:13:12;;;;;;;7.43;5.18;;;;;;;17.61;86.94;101301.59;5034700;28;20636;-73
2023/07/11 03:15:38;;;;;;;7.53;5.85;;;;;;;17.58;86.67;101301.81;5041566;28;20021;-80
2023/07/11 03:18:05;;;;;;;8.40;5.85;;;;;;;17.53;86.89;101299.47;5047151;28;20379;-75
2023/07/11 03:20:35;;;;;;;8.77;5.78;;;;;;;17.53;86.92;101301.28;5035630;28;20105;-74
2023/07/11 03:23:01;;;;;;;7.22;5.20;;;;;;;17.53;86.44;101293.22;5049713;28;20055;-79
2023/07/11 03:25:26;;;;;;;9.07;5.82;;;;;;;17.51;86.92;101296.00;5037550;28;20264;-73
2023/07/11 03:27:52;;;;;;;7.00;5.63;;;;;;;17.41;87.00;101278.81;5030042;28;20388;-79
2023/07/11 03:30:18;;;;;;;8.93;5.93;;;;;;;17.41;87.11;101287.75;5034536;28;20035;-82
2023/07/11 03:32:43;;;;;;;7.55;5.55;;;;;;;17.38;87.02;101281.72;5028718;28;20351;-74
2023/07/11 03:35:08;;;;;;;7.78;5.70;;;;;;;17.41;86.77;101282.38;5028026;28;20563;-81
2023/07/11 03:37:34;;;;;;;8.35;5.97;;;;;;;17.36;86.98;101279.16;5031918;28;20035;-81
2023/07/11 03:40:00;;;;;;;10.18;6.13;;;;;;;17.36;87.17;101275.63;5031682;28;20052;-78
2023/07/11 03:42:26;;;;;;;10.27;5.82;;;;;;;17.39;87.57;101286.16;5022606;28;20101;-81
2023/07/11 03:44:51;;;;;;;8.77;5.45;;;;;;;17.36;87.24;101289.06;5033977;28;20624;-81
2023/07/11 03:47:17;;;;;;;6.55;5.28;;;;;;;17.34;87.00;101282.91;5031766;28;20045;-84
2023/07/11 03:49:42;;;;;;;7.45;6.03;;;;;;;17.34;87.21;101278.41;5039518;28;20024;-78
2023/07/11 03:52:08;;;;;;;8.13;5.45;;;;;;;17.30;86.56;101271.50;5040813;28;20036;-82
2023/07/11 03:54:33;;;;;;;7.32;5.57;;;;;;;17.33;87.15;101284.75;5033702;28;20544;-85
2023/07/11 03:56:59;;;;;;;9.98;5.70;;;;;;;17.33;86.83;101276.69;5043455;28;20499;-78
2023/07/11 03:59:24;;;;;;;8.60;5.18;;;;;;;17.31;87.10;101286.72;5032914;28;20104;-69
2023/07/11 04:01:50;;;;;;;8.23;6.28;;;;;;;17.29;87.07;101277.88;5044126;28;20209;-79
2023/07/11 04:04:15;;;;;;;9.38;5.43;;;;;;;17.27;87.27;101265.53;5050923;28;21523;-80
2023/07/11 04:06:41;;;;;;;6.50;5.25;;;;;;;17.29;87.32;101271.63;5040250;28;20021;-73
2023/07/11 04:09:07;;;;;;;5.97;5.00;;;;;;;17.28;86.48;101276.16;5037055;28;20133;-74
2023/07/11 04:11:32;;;;;;;8.23;5.22;;;;;;;17.29;87.15;101268.94;5040043;28;20031;-82
2023/07/11 04:13:58;;;;;;;6.32;5.13;;;;;;;17.29;86.43;101269.81;5042070;28;20037;-81
2023/07/11 04:16:23;;;;;;;7.13;5.20;;;;;;;17.31;86.68;101269.72;5038127;28;20112;-76
2023/07/11 04:18:49;;;;;;;6.53;5.22;;;;;;;17.27;86.08;101269.06;5039269;28;20141;-82
2023/07/11 04:21:16;;;;;;;7.40;5.40;;;;;;;17.32;87.14;101261.53;5037933;28;20208;-75
2023/07/11 04:23:42;;;;;;;8.40;5.78;;;;;;;17.31;86.59;101259.81;5035771;28;20044;-78
2023/07/11 04:26:08;;;;;;;6.75;5.32;;;;;;;17.36;86.45;101260.31;5040126;28;20025;-85
2023/07/11 04:28:33;;;;;;;5.30;4.70;;;;;;;17.35;85.98;101258.63;5035277;28;20086;-80
2023/07/11 04:30:58;;;;;;;5.95;5.30;;;;;;;17.32;85.37;101258.81;5042133;28;20207;-76
2023/07/11 04:33:27;;;;;;;7.30;5.20;;;;;;;17.45;85.68;101253.41;5037015;28;20024;-80
2023/07/11 04:35:52;;;;;;;6.32;5.10;;;;;;;17.43;86.08;101250.84;5041952;28;20088;-80
2023/07/11 04:38:18;;;;;;;7.32;4.80;;;;;;;17.46;85.99;101244.34;5043339;28;20033;-81
2023/07/11 04:40:45;;;;;;;6.95;5.50;;;;;;;17.49;84.88;101243.28;5039979;28;20025;-82
2023/07/11 04:43:10;;;;;;;5.57;4.95;;;;;;;17.52;84.76;101243.94;5042525;28;20028;-73
2023/07/11 04:45:36;;;;;;;6.80;5.50;;;;;;;17.59;85.01;101241.63;5038974;28;20036;-76
2023/07/11 04:48:02;;;;;;;8.10;5.30;;;;;;;17.61;84.46;101237.00;5039629;28;20044;-73
2023/07/11 04:50:27;;;;;;;7.03;5.35;;;;;;;17.65;83.65;101233.09;5036604;28;20091;-75
2023/07/11 04:52:53;;;;;;;6.47;5.40;;;;;;;17.66;83.75;101234.81;5054288;28;20021;-71
2023/07/11 04:55:18;;;;;;;8.15;5.18;;;;;;;17.74;83.82;101236.94;5054138;28;20036;-83
2023/07/11 04:57:44;;;;;;;6.20;5.32;;;;;;;17.77;82.40;101228.69;5045227;28;20079;-77
2023/07/11 05:00:10;;;;;;;5.70;5.00;;;;;;;17.78;82.40;101228.56;5036714;28;20395;-72
2023/07/11 05:02:35;;;;;;;6.85;5.38;;;;;;;17.91;82.32;101223.09;5042438;28;20029;-76
2023/07/11 05:05:01;;;;;;;7.25;5.30;;;;;;;17.97;81.26;101222.63;5037388;28;20028;-70
2023/07/11 05:07:26;;;;;;;6.75;5.10;;;;;;;18.04;81.51;101223.88;5050843;28;20035;-79
2023/07/11 05:09:51;;;;;;;7.35;5.22;;;;;;;18.11;81.10;101218.91;5047390;28;20566;-76
2023/07/11 05:12:17;;;;;;;6.45;5.60;;;;;;;18.18;80.38;101209.34;5042983;28;20029;-75
2023/07/11 05:14:42;;;;;;;6.20;4.80;;;;;;;18.28;80.28;101204.97;5053988;28;20386;-78
2023/07/11 05:17:07;;;;;;;7.03;5.10;;;;;;;18.34;79.77;101209.03;5045769;28;20510;-74
2023/07/11 05:19:33;;;;;;;7.53;5.32;;;;;;;18.44;79.65;101201.09;5032763;28;20391;-81
2023/07/11 05:21:59;;;;;;;6.05;4.88;;;;;;;18.53;78.99;101203.06;5036926;28;20144;-74
2023/07/11 05:24:25;;;;;;;7.78;4.85;;;;;;;18.57;77.38;101201.84;5040008;28;20098;-81
2023/07/11 05:26:51;;;;;;;7.07;4.40;;;;;;;18.64;77.06;101193.16;5040736;28;20096;-83
2023/07/11 05:29:16;;;;;;;4.68;4.20;;;;;;;18.76;77.69;101196.72;5040911;28;20024;-78
2023/07/11 05:31:43;;;;;;;4.32;3.85;;;;;;;18.85;76.52;101193.31;5037607;28;20078;-80
2023/07/11 05:34:10;;;;;;;5.70;4.28;;;;;;;18.94;75.95;101190.88;5043473;28;20112;-73
2023/07/11 05:36:35;;;;;;;5.03;3.90;;;;;;;19.02;74.88;101191.97;5034352;28;20031;-80
2023/07/11 05:39:04;;;;;;;5.22;3.92;;;;;;;19.11;74.34;101191.22;5041780;28;20339;-81
2023/07/11 05:41:34;;;;;;;7.30;3.92;;;;;;;19.20;74.49;101191.44;5038183;28;20224;-73
2023/07/11 05:44:00;;;;;;;7.97;4.80;;;;;;;19.29;73.89;101183.44;5024298;28;20247;-82
2023/07/11 05:46:26;;;;;;;6.57;3.72;;;;;;;19.40;73.58;101190.66;5034345;28;20467;-70
2023/07/11 05:48:53;;;;;;;6.45;4.10;;;;;;;19.51;73.49;101187.06;5037144;28;20349;-75
2023/07/11 05:51:19;;;;;;;5.00;4.10;;;;;;;19.60;72.52;101181.75;5037887;28;20451;-77
2023/07/11 05:53:46;;;;;;;5.15;3.88;;;;;;;19.74;71.58;101177.09;5034187;28;20510;-75
2023/07/11 05:56:12;;;;;;;5.60;4.13;;;;;;;19.93;71.64;101179.06;5038931;28;20024;-75
2023/07/11 05:58:38;;;;;;;7.50;4.15;;;;;;;20.02;71.17;101173.78;5032488;28;20075;-80
2023/07/11 06:01:04;;;;;;;5.82;4.40;;;;;;;20.21;70.71;101181.13;5033375;28;20449;-77
2023/07/11 06:03:31;;;;;;;7.55;4.13;;;;;;;20.34;70.17;101172.81;5038706;28;20036;-79
2023/07/11 06:06:02;;;;;;;6.15;3.80;;;;;;;20.49;68.40;101170.69;5053420;28;20060;-79
2023/07/11 06:08:28;;;;;;;6.03;4.20;;;;;;;20.68;68.17;101169.91;5034654;28;20377;-74
2023/07/11 06:10:57;;;;;;;6.20;3.97;;;;;;;20.88;67.73;101163.59;5037959;28;20082;-75
2023/07/11 06:13:23;;;;;;;7.28;4.13;;;;;;;21.03;66.72;101167.63;5034076;28;20083;-71
2023/07/11 06:15:48;;;;;;;5.72;3.63;;;;;;;21.26;66.43;101165.53;5041680;28;20012;-75
2023/07/11 06:18:14;;;;;;;5.55;3.45;;;;;;;21.38;65.44;101158.19;5043163;28;21033;-77
2023/07/11 06:20:39;;;;;;;6.05;3.75;;;;;;;21.59;65.55;101166.19;5029375;28;20060;-74
2023/07/11 06:23:04;;;;;;;5.03;3.58;;;;;;;21.77;63.51;101159.06;5038083;28;20035;-75
2023/07/11 06:25:30;;;;;;;4.97;3.83;;;;;;;21.87;63.05;101159.06;5037053;28;20075;-78
2023/07/11 06:27:58;;;;;;;7.43;3.67;;;;;;;21.96;62.25;101155.50;5036497;28;20031;-72
2023/07/11 06:30:23;;;;;;;6.60;4.10;;;;;;;22.13;62.83;101153.94;5032881;28;20025;-77
2023/07/11 06:32:48;;;;;;;6.55;3.90;;;;;;;22.26;61.98;101153.63;5036701;28;20047;-81
2023/07/11 06:35:14;;;;;;;4.78;3.30;;;;;;;22.37;60.62;101151.59;5036682;28;20024;-81
2023/07/11 06:37:39;;;;;;;5.22;3.20;;;;;;;22.49;60.10;101145.97;5034814;28;20196;-73
2023/07/11 06:40:08;;;;;;;6.18;3.53;;;;;;;22.66;60.15;101155.19;5039105;28;20123;-77
2023/07/11 06:42:34;;;;;;;6.00;3.00;;;;;;;22.86;59.13;101146.81;5037618;28;20109;-74
2023/07/11 06:44:59;;;;;;;7.63;2.97;;;;;;;23.02;57.44;101145.34;5039556;28;20059;-77
2023/07/11 06:47:27;;;;;;;5.05;2.70;;;;;;;23.22;58.26;101148.81;5034269;28;20044;-76
2023/07/11 06:49:53;;;;;;;4.03;2.63;;;;;;;23.38;56.95;101145.41;5033264;28;20476;-73
2023/07/11 06:52:18;;;;;;;5.97;3.47;;;;;;;23.51;56.94;101137.72;5041216;28;20081;-75
2023/07/11 06:54:44;;;;;;;5.85;2.95;;;;;;;23.82;56.38;101143.63;5029989;28;20066;-77
2023/07/11 06:57:09;;;;;;;6.65;2.47;;;;;;;23.83;54.95;101146.22;5052024;28;20032;-78
2023/07/11 06:59:34;;;;;;;3.70;2.30;;;;;;;23.97;54.96;101133.94;5040519;28;20053;-78
2023/07/11 07:02:00;;;;;;;4.03;2.50;;;;;;;24.19;53.90;101139.84;5034738;28;20037;-79
2023/07/11 07:04:29;;;;;;;6.43;2.72;;;;;;;24.25;53.37;101137.38;5037793;28;20028;-77
2023/07/11 07:06:55;;;;;;;6.30;2.55;;;;;;;24.26;51.54;101135.50;5023438;28;20083;-73
2023/07/11 07:09:20;;;;;;;6.82;2.50;;;;;;;24.34;52.58;101144.56;5028598;28;20565;-78
2023/07/11 07:11:45;;;;;;;4.75;2.30;;;;;;;24.39;51.58;101141.38;5038268;28;20029;-76
2023/07/11 07:14:11;;;;;;;5.88;2.50;;;;;;;24.47;50.75;101135.16;5022198;28;20056;-75
2023/07/11 07:16:38;;;;;;;5.30;2.50;;;;;;;24.61;50.17;101139.97;5029844;28;20236;-71
2023/07/11 07:19:05;;;;;;;6.82;2.42;;;;;;;24.74;49.06;101140.38;5050724;28;20033;-76
2023/07/11 07:21:31;;;;;;;5.40;2.35;;;;;;;24.81;48.79;101140.59;5027841;28;20017;-78
2023/07/11 07:23:57;;;;;;;4.00;2.28;;;;;;;25.00;48.57;101144.94;5027201;28;20076;-76
2023/07/11 07:26:22;;;;;;;5.47;2.22;;;;;;;25.14;47.69;101144.31;5033396;28;20435;-72
2023/07/11 07:28:47;;;;;;;5.40;2.55;;;;;;;25.38;48.57;101143.53;5028583;28;20024;-77
2023/07/11 07:31:13;;;;;;;4.15;2.47;;;;;;;25.80;46.70;101143.44;5035455;28;20029;-80
2023/07/11 07:33:40;;;;;;;4.45;2.10;;;;;;;26.23;45.99;101129.59;5031043;28;20038;-71
2023/07/11 07:36:08;;;;;;;4.50;2.30;;;;;;;26.58;43.95;101128.31;5036514;28;20116;-73
2023/07/11 07:38:34;;;;;;;6.65;2.60;;;;;;;26.62;42.72;101121.50;5040346;28;20028;-77
2023/07/11 07:41:03;;;;;;;3.28;2.10;;;;;;;27.07;42.51;101137.16;5040104;28;20125;-77
2023/07/11 07:43:30;;;;;;;14.70;3.08;;;;;;;27.46;41.91;101124.50;5035736;28;20063;-72
2023/07/11 07:45:57;;;;;;;4.75;2.28;;;;;;;27.98;40.39;101121.88;5034093;28;20023;-73
2023/07/11 07:48:23;;;;;;;4.43;1.75;;;;;;;28.07;40.77;101121.81;5034887;28;20091;-75
2023/07/11 07:50:49;;;;;;;4.22;1.95;;;;;;;28.51;39.65;101116.44;5040303;28;20541;-74
2023/07/11 07:53:16;;;;;;;6.53;2.72;;;;;;;28.91;37.86;101123.25;5042515;28;20028;-80
2023/07/11 07:55:42;;;;;;;6.30;2.20;;;;;;;29.14;37.82;101114.94;5042575;28;20035;-72
2023/07/11 07:58:08;;;;;;;6.35;2.17;;;;;;;29.28;37.71;101114.03;5045749;28;20039;-75
2023/07/11 08:00:34;;;;;;;6.97;2.03;;;;;;;29.90;36.46;101117.22;5035811;28;20025;-78
2023/07/11 08:02:59;;;;;;;4.60;2.20;;;;;;;30.30;35.15;101109.28;5038616;28;20505;-75
2023/07/11 08:05:25;;;;;;;4.70;2.15;;;;;;;30.79;35.32;101100.09;5037973;28;20419;-80
2023/07/11 08:07:51;;;;;;;5.95;2.35;;;;;;;31.37;33.83;101108.78;5037592;28;20219;-76
2023/07/11 08:10:17;;;;;;;3.60;2.00;;;;;;;31.89;32.38;101107.16;5034377;28;20095;-78
2023/07/11 08:12:44;;;;;;;4.82;2.15;;;;;;;32.23;32.24;101109.69;5040932;28;20091;-74
2023/07/11 08:15:11;;;;;;;5.03;2.17;;;;;;;32.24;31.29;101105.84;5039476;28;20032;-75
2023/07/11 08:17:37;;;;;;;2.83;1.85;;;;;;;32.38;31.20;101101.19;5039151;28;20170;-74
2023/07/11 08:20:02;;;;;;;3.78;1.90;;;;;;;32.35;30.64;101103.50;5038395;28;20033;-71
2023/07/11 08:22:28;;;;;;;6.35;2.53;;;;;;;32.91;30.57;101091.91;5038707;28;20138;-75
2023/07/11 08:24:53;;;;;;;3.03;1.90;;;;;;;33.19;29.57;101106.22;5035259;28;20033;-71
2023/07/11 08:27:19;;;;;;;5.07;2.53;;;;;;;33.80;29.90;101103.91;5038418;28;20174;-75
2023/07/11 08:29:45;;;;;;;5.50;2.42;;;;;;;33.97;30.26;101102.28;5040435;28;20035;-73
2023/07/11 08:32:15;;;;;;;4.35;2.00;;;;;;;34.39;29.24;101099.75;5030063;28;20120;-75
2023/07/11 08:34:41;;;;;;;5.40;2.20;;;;;;;34.41;27.50;101100.38;5028089;28;20048;-72
2023/07/11 08:37:07;;;;;;;3.65;1.92;;;;;;;34.10;28.30;101101.31;5032353;28;20240;-73
2023/07/11 08:39:33;;;;;;;5.55;1.95;;;;;;;34.14;28.01;101103.41;5050189;28;20059;-77
2023/07/11 08:42:06;;;;;;;5.00;2.00;;;;;;;34.31;27.81;101098.13;5035756;28;20061;-73
2023/07/11 08:44:37;;;;;;;4.70;2.35;;;;;;;34.57;28.06;101087.88;5032941;28;20535;-74
2023/07/11 08:47:15;;;;;;;3.67;1.70;;;;;;;34.27;28.89;101090.53;5023604;28;20419;-73
2023/07/11 08:49:58;;;;;;;5.82;2.25;;;;;;;34.08;29.56;101096.03;5024557;28;20087;-79
2023/07/11 08:52:25;;;;;;;3.45;2.15;;;;;;;33.10;29.48;101096.47;5038543;28;20045;-76
2023/07/11 08:54:59;;;;;;;4.07;1.70;;;;;;;31.99;31.14;101099.31;5034247;28;20021;-76
2023/07/11 08:57:29;;;;;;;3.88;2.15;;;;;;;31.71;32.06;101081.06;5025472;28;20095;-74
2023/07/11 09:00:12;;;;;;;3.88;2.00;;;;;;;31.84;32.32;101090.44;5036949;28;20083;-76
2023/07/11 09:02:56;;;;;;;3.00;2.10;;;;;;;32.58;31.75;101083.75;5034516;28;20103;-74
2023/07/11 09:05:34;;;;;;;5.78;2.28;;;;;;;34.05;29.18;101079.06;5033200;28;20487;-75
2023/07/11 09:08:00;;;;;;;4.30;1.65;;;;;;;34.75;27.44;101076.81;5023034;28;20030;-77
2023/07/11 09:10:43;;;;;;;3.25;1.98;;;;;;;35.12;28.77;101076.78;5029031;28;20098;-76
2023/07/11 09:13:35;;;;;;;4.32;1.85;;;;;;;35.27;27.57;101076.34;5037157;28;20116;-78
2023/07/11 09:16:22;;;;;;;11.57;2.13;;;;;;;36.08;27.52;101083.16;5042531;28;20021;-72
2023/07/11 09:19:06;;;;;;;9.18;2.25;;;;;;;35.96;25.95;101088.66;5041607;28;20730;-77
2023/07/11 09:21:40;;;;;;;4.05;1.90;;;;;;;35.43;27.12;101083.97;5027620;28;20491;-71
2023/07/11 09:24:33;;;;;;;5.97;2.10;;;;;;;34.77;28.20;101079.34;5030566;28;20028;-77
2023/07/11 09:27:16;;;;;;;4.15;1.90;;;;;;;35.08;27.56;101075.56;5041963;28;20373;-72
2023/07/11 09:29:45;;;;;;;6.88;2.20;;;;;;;35.72;26.68;101075.88;5033411;28;20472;-79
2023/07/11 09:32:11;;;;;;;4.40;2.50;;;;;;;36.71;26.25;101073.22;5024208;28;20399;-73
2023/07/11 09:34:41;;;;;;;4.88;2.30;;;;;;;37.91;24.70;101061.00;5024138;28;20055;-74
2023/07/11 09:37:42;;;;;;;4.85;1.92;;;;;;;38.63;25.33;101068.44;5035964;28;20037;-77
2023/07/11 09:40:14;;;;;;;5.63;2.17;;;;;;;38.29;23.48;101078.78;5038760;28;20102;-78
2023/07/11 09:42:50;;;;;;;6.22;1.95;;;;;;;37.72;24.40;101081.81;5032952;28;20103;-76
2023/07/11 09:45:18;;;;;;;6.15;2.03;;;;;;;37.49;24.60;101064.19;5034557;28;20098;-72
2023/07/11 09:47:51;;;;;;;6.63;2.30;;;;;;;37.42;24.16;101074.63;5031973;28;20272;-77
2023/07/11 09:50:54;;;;;;;6.22;2.30;;;;;;;37.87;24.71;101073.72;5022512;28;20037;-75
2023/07/11 09:53:23;;;;;;;7.45;2.45;;;;;;;37.99;24.05;101080.03;5041211;28;20087;-72
2023/07/11 09:55:57;;;;;;;5.22;2.08;;;;;;;36.65;24.91;101069.47;5032340;28;20301;-75
2023/07/11 09:58:23;;;;;;;3.55;1.92;;;;;;;36.17;24.83;101065.91;5023752;28;20032;-76
2023/07/11 10:00:52;;;;;;;5.07;2.22;;;;;;;37.00;24.74;101074.94;5023902;28;20029;-76
2023/07/11 10:03:24;;;;;;;3.70;2.22;;;;;;;37.91;23.63;101071.28;5029204;28;20025;-76
2023/07/11 10:05:52;;;;;;;5.20;2.38;;;;;;;38.98;22.37;101056.91;5041510;28;20025;-76
2023/07/11 10:08:19;;;;;;;4.72;2.45;;;;;;;39.47;22.01;101059.66;5044645;28;20111;-76
2023/07/11 10:10:53;;;;;;;3.33;2.40;;;;;;;38.82;22.83;101058.69;5036775;28;20138;-78
2023/07/11 10:13:20;;;;;;;6.00;2.40;;;;;;;37.77;23.25;101048.53;5046429;28;20211;-69
2023/07/11 10:15:51;;;;;;;7.05;2.00;;;;;;;36.84;24.99;101051.56;5039885;28;20028;-75
2023/07/11 10:18:26;;;;;;;5.30;2.40;;;;;;;35.51;25.35;101049.59;5034188;28;20044;-73
2023/07/11 10:20:55;;;;;;;4.57;2.20;;;;;;;34.48;27.41;101050.56;5038881;28;20141;-74
2023/07/11 10:23:24;;;;;;;3.88;2.10;;;;;;;33.50;28.63;101046.59;5031580;28;20024;-77
2023/07/11 10:26:26;;;;;;;4.43;2.28;;;;;;;33.43;29.87;101045.78;5036574;28;20553;-75
2023/07/11 10:29:10;;;;;;;4.07;2.25;;;;;;;33.73;29.12;101037.69;4943311;28;20498;-76
2023/07/11 10:31:43;;;;;;;10.40;2.88;;;;;;;33.69;30.17;101039.22;4957699;28;20042;-77
2023/07/11 10:34:21;;;;;;;4.50;2.15;;;;;;;33.85;29.65;101026.75;4952238;28;20046;-73
2023/07/11 10:36:52;;;;;;;4.72;2.08;;;;;;;33.52;29.30;101027.91;4959270;28;20034;-76
2023/07/11 10:39:40;;;;;;;4.78;2.17;;;;;;;33.42;30.53;101022.03;4959898;28;20038;-79
2023/07/11 10:42:10;;;;;;;5.65;2.45;;;;;;;33.72;29.85;101020.28;4968068;28;20473;-75
2023/07/11 10:44:42;;;;;;;5.38;2.10;;;;;;;34.79;30.04;101008.94;4959807;28;20386;-76
2023/07/11 10:47:09;;;;;;;5.68;2.50;;;;;;;36.16;26.81;101010.72;4947247;28;20065;-74
2023/07/11 10:49:44;;;;;;;4.68;2.33;;;;;;;35.91;26.33;101011.00;4961592;28;20043;-70
2023/07/11 10:52:21;;;;;;;4.45;2.60;;;;;;;35.33;27.52;101011.78;4953568;28;20040;-77
2023/07/11 10:54:52;;;;;;;4.82;2.22;;;;;;;35.05;27.94;101007.72;4947743;28;20082;-81
2023/07/11 10:57:38;;;;;;;4.50;2.42;;;;;;;35.25;27.94;100998.28;4949978;28;20046;-78
2023/07/11 11:00:14;;;;;;;4.18;2.15;;;;;;;35.43;26.71;100998.16;4960467;28;20098;-73
2023/07/11 11:02:55;;;;;;;5.43;2.45;;;;;;;35.32;27.10;100996.22;4986296;28;20038;-75
2023/07/11 11:05:35;;;;;;;4.90;2.47;;;;;;;35.23;26.97;100997.66;5036790;28;20210;-72
2023/07/11 11:08:16;;;;;;;3.85;2.03;;;;;;;35.06;27.30;100981.72;5033468;28;20037;-71
2023/07/11 11:11:01;;;;;;;6.35;2.60;;;;;;;35.07;27.03;100999.16;5048731;28;20032;-69
2023/07/11 11:13:34;;;;;;;5.13;2.78;;;;;;;35.71;26.29;100996.66;5051725;28;20040;-71
2023/07/11 11:16:08;;;;;;;8.60;3.55;;;;;;;36.42;25.59;100981.66;5061760;28;20024;-70
2023/07/11 11:18:33;;;;;;;7.32;2.67;;;;;;;36.30;25.05;100978.91;5050633;28;20029;-70
2023/07/11 11:21:10;;;;;;;4.13;2.05;;;;;;;35.53;25.87;100968.00;5046970;28;20059;-70
2023/07/11 11:23:41;;;;;;;4.93;2.45;;;;;;;35.29;26.45;100972.66;5050109;28;20041;-73
2023/07/11 11:26:32;;;;;;;3.08;2.25;;;;;;;35.40;26.94;100976.50;5039831;28;20053;-69
2023/07/11 11:29:11;;;;;;;12.38;3.05;;;;;;;36.81;26.33;100973.56;5029991;28;20304;-79